createdAt,value
2023-04-06T07:03:25.170Z,3.73
2023-04-06T07:04:26.693Z,3.88
2023-04-06T07:05:29.174Z,3.90
2023-04-06T07:06:30.912Z,3.99
2023-04-06T07:07:35.794Z,4.16
2023-04-06T07:08:39.479Z,4.02
2023-04-06T07:09:41.330Z,4.37
2023-04-06T07:10:42.985Z,4.84
2023-04-06T07:11:44.457Z,4.89
2023-04-06T07:12:45.919Z,5.14
2023-04-06T07:13:47.439Z,5.35
2023-04-06T07:14:48.937Z,5.68
2023-04-06T07:15:51.077Z,5.23
2023-04-06T07:16:52.640Z,5.29
2023-04-06T07:17:55.559Z,5.27
2023-04-06T07:18:57.286Z,5.66
2023-04-06T07:19:58.795Z,6.03
2023-04-06T07:21:00.326Z,6.33
2023-04-06T07:22:01.997Z,6.75
2023-04-06T07:23:03.760Z,7.18
2023-04-06T07:24:05.428Z,6.96
2023-04-06T07:25:07.268Z,7.24
2023-04-06T07:26:08.840Z,7.54
2023-04-06T07:27:10.571Z,7.68
2023-04-06T07:28:12.281Z,7.60
2023-04-06T07:29:13.727Z,7.97
2023-04-06T07:30:15.303Z,7.88
2023-04-06T07:31:17.285Z,7.38
2023-04-06T07:32:18.963Z,7.59
2023-04-06T07:33:20.658Z,8.15
2023-04-06T07:34:22.786Z,7.82
2023-04-06T07:35:25.543Z,8.27
2023-04-06T07:36:27.017Z,8.69
2023-04-06T07:37:28.544Z,8.78
2023-04-06T07:38:29.933Z,9.08
2023-04-06T07:39:31.705Z,8.80
2023-04-06T07:40:33.728Z,8.89
2023-04-06T07:41:35.187Z,9.05
2023-04-06T07:42:36.877Z,9.22
2023-04-06T07:43:39.222Z,9.47
2023-04-06T07:44:40.914Z,9.62
2023-04-06T07:45:42.464Z,9.36
2023-04-06T07:46:43.926Z,9.61
2023-04-06T07:47:45.513Z,9.71
2023-04-06T07:48:47.078Z,9.82
2023-04-06T07:49:48.456Z,9.84
2023-04-06T07:50:50.090Z,9.88
2023-04-06T07:51:51.549Z,10.20
2023-04-06T07:52:52.951Z,10.16
2023-04-06T07:53:54.502Z,10.41
2023-04-06T07:54:55.942Z,10.13
2023-04-06T07:55:58.834Z,10.90
2023-04-06T07:57:00.510Z,10.92
2023-04-06T07:58:02.167Z,10.93
2023-04-06T07:59:04.035Z,11.50
2023-04-06T08:00:06.593Z,11.75
2023-04-06T08:01:08.297Z,11.55
2023-04-06T08:02:09.969Z,11.15
2023-04-06T08:03:11.935Z,11.38
2023-04-06T08:04:13.934Z,11.49
2023-04-06T08:05:15.700Z,11.02
2023-04-06T08:06:18.057Z,10.83
2023-04-06T08:07:19.576Z,11.31
2023-04-06T08:08:22.199Z,11.60
2023-04-06T08:09:23.933Z,11.38
2023-04-06T08:10:25.590Z,10.82
2023-04-06T08:11:27.704Z,10.93
2023-04-06T08:12:29.148Z,10.90
2023-04-06T08:13:30.722Z,10.64
2023-04-06T08:14:32.180Z,10.46
2023-04-06T08:15:33.667Z,10.58
2023-04-06T08:16:35.180Z,10.74
2023-04-06T08:17:36.741Z,10.75
2023-04-06T08:18:38.315Z,11.06
2023-04-06T08:19:39.818Z,11.25
2023-04-06T08:20:41.593Z,11.07
2023-04-06T08:21:43.451Z,11.09
2023-04-06T08:22:45.197Z,11.30
2023-04-06T08:23:47.163Z,10.76
2023-04-06T08:24:48.603Z,11.01
2023-04-06T08:25:50.069Z,11.22
2023-04-06T08:26:52.371Z,10.81
2023-04-06T08:27:54.041Z,10.79
2023-04-06T08:28:55.479Z,11.13
2023-04-06T08:29:56.919Z,11.44
2023-04-06T08:30:58.493Z,11.35
2023-04-06T08:31:59.937Z,11.21
2023-04-06T08:33:01.581Z,11.16
2023-04-06T08:34:05.298Z,10.97
2023-04-06T08:35:07.769Z,10.45
2023-04-06T08:36:13.870Z,10.39
2023-04-06T08:37:15.342Z,10.52
2023-04-06T08:38:17.155Z,11.07
2023-04-06T08:39:24.859Z,11.46
2023-04-06T08:40:26.464Z,11.38
2023-04-06T08:41:28.909Z,11.72
2023-04-06T08:42:33.610Z,10.79
2023-04-06T08:43:49.199Z,10.61
2023-04-06T08:44:53.193Z,10.79
2023-04-06T08:45:54.685Z,11.16
2023-04-06T08:46:56.171Z,11.12
2023-04-06T08:47:59.873Z,11.07
2023-04-06T08:49:07.696Z,10.85
2023-04-06T08:50:12.232Z,10.50
2023-04-06T08:51:13.973Z,10.94
2023-04-06T08:52:19.310Z,11.10
2023-04-06T08:53:24.030Z,11.02
2023-04-06T08:54:26.231Z,11.24
2023-04-06T08:55:28.105Z,10.99
2023-04-06T08:56:30.014Z,10.90
2023-04-06T08:57:32.829Z,10.80
2023-04-06T08:58:38.981Z,11.04
2023-04-06T08:59:41.266Z,11.26
2023-04-06T09:00:44.288Z,11.08
2023-04-06T09:01:47.263Z,11.04
2023-04-06T09:02:50.723Z,11.47
2023-04-06T09:03:56.352Z,10.51
2023-04-06T09:04:58.466Z,10.44
2023-04-06T09:06:00.627Z,10.43
2023-04-06T09:07:02.284Z,10.48
2023-04-06T09:08:03.982Z,10.65
2023-04-06T09:09:05.457Z,10.45
2023-04-06T09:10:07.519Z,11.01
2023-04-06T09:11:09.673Z,11.51
2023-04-06T09:12:13.251Z,11.66
2023-04-06T09:13:14.836Z,10.75
2023-04-06T09:14:17.485Z,10.57
2023-04-06T09:15:24.664Z,10.51
2023-04-06T09:16:26.950Z,10.50
2023-04-06T09:17:30.865Z,10.51
2023-04-06T09:18:33.589Z,10.48
2023-04-06T09:19:35.068Z,10.60
2023-04-06T09:20:36.557Z,10.33
2023-04-06T09:21:38.715Z,10.19
2023-04-06T09:22:41.380Z,10.13
2023-04-06T09:23:42.897Z,9.89
2023-04-06T09:24:49.320Z,10.64
2023-04-06T09:25:50.910Z,10.19
2023-04-06T09:26:52.323Z,9.98
2023-04-06T09:28:01.690Z,10.67
2023-04-06T09:29:04.442Z,10.76
2023-04-06T09:30:15.044Z,10.67
2023-04-06T09:31:22.978Z,10.89
2023-04-06T09:32:24.482Z,11.21
2023-04-06T09:33:26.080Z,11.21
2023-04-06T09:34:27.614Z,12.11
2023-04-06T09:35:30.910Z,12.81
2023-04-06T09:36:39.347Z,13.36
2023-04-06T09:37:40.842Z,12.38
2023-04-06T09:39:06.540Z,11.97
2023-04-06T09:40:08.815Z,11.23
2023-04-06T09:41:10.401Z,11.20
2023-04-06T09:42:33.595Z,11.12
2023-04-06T09:43:35.088Z,10.21
2023-04-06T09:44:36.804Z,9.57
2023-04-06T09:45:38.286Z,9.27
2023-04-06T09:46:57.837Z,9.42
2023-04-06T09:48:01.493Z,9.60
2023-04-06T09:49:04.392Z,9.44
2023-04-06T09:50:06.467Z,10.34
2023-04-06T09:51:08.739Z,10.97
2023-04-06T09:52:13.284Z,12.21
2023-04-06T09:53:15.586Z,11.43
2023-04-06T09:54:21.155Z,12.97
2023-04-06T09:55:31.558Z,13.07
2023-04-06T09:57:04.927Z,12.70
2023-04-06T09:58:08.193Z,11.97
2023-04-06T09:59:15.380Z,11.93
2023-04-06T10:00:21.740Z,11.98
2023-04-06T10:01:27.299Z,12.37
2023-04-06T10:03:07.855Z,12.47
2023-04-06T10:04:18.200Z,12.65
2023-04-06T10:05:22.550Z,12.10
2023-04-06T10:06:28.309Z,12.34
2023-04-06T10:07:30.535Z,12.36
2023-04-06T10:08:36.915Z,12.43
2023-04-06T10:09:39.300Z,12.32
2023-04-06T10:10:40.904Z,12.35
2023-04-06T10:11:42.729Z,12.47
2023-04-06T10:12:45.479Z,12.87
2023-04-06T10:13:49.733Z,12.76
2023-04-06T10:14:51.821Z,12.70
2023-04-06T10:15:53.814Z,12.72
2023-04-06T10:16:55.556Z,12.19
2023-04-06T10:18:02.428Z,12.55
2023-04-06T10:19:14.365Z,12.38
2023-04-06T10:20:23.989Z,12.44
2023-04-06T10:21:28.554Z,12.48
2023-04-06T10:23:00.290Z,13.14
2023-04-06T10:24:07.914Z,12.64
2023-04-06T10:25:10.424Z,13.02
2023-04-06T10:26:17.477Z,12.32
2023-04-06T10:27:28.852Z,12.39
2023-04-06T10:28:36.606Z,12.62
2023-04-06T10:29:46.244Z,14.16
2023-04-06T10:30:47.750Z,14.20
2023-04-06T10:31:50.075Z,14.15
2023-04-06T10:32:51.663Z,14.98
2023-04-06T10:34:00.505Z,14.75
2023-04-06T10:35:15.305Z,15.39
2023-04-06T10:36:27.258Z,14.55
2023-04-06T10:37:28.701Z,14.57
2023-04-06T10:38:41.882Z,15.18
2023-04-06T10:39:56.182Z,14.84
2023-04-06T10:41:05.954Z,14.58
2023-04-06T10:42:07.847Z,15.22
2023-04-06T10:43:13.813Z,15.98
2023-04-06T10:44:25.639Z,16.54
2023-04-06T10:45:32.040Z,15.64
2023-04-06T10:46:34.746Z,16.77
2023-04-06T10:47:42.344Z,15.23
2023-04-06T10:48:47.680Z,15.71
2023-04-06T10:49:49.303Z,16.79
2023-04-06T10:50:52.981Z,15.89
2023-04-06T10:51:55.622Z,16.44
2023-04-06T10:53:02.205Z,16.07
2023-04-06T10:54:06.126Z,15.56
2023-04-06T10:55:11.429Z,16.23
2023-04-06T10:56:16.277Z,17.67
2023-04-06T10:57:29.087Z,17.12
2023-04-06T10:58:31.689Z,16.59
2023-04-06T10:59:33.244Z,17.26
2023-04-06T11:00:47.394Z,18.29
2023-04-06T11:01:51.306Z,19.04
2023-04-06T11:03:00.233Z,19.03
2023-04-06T11:04:02.218Z,18.05
2023-04-06T11:05:03.738Z,17.18
2023-04-06T11:06:05.223Z,14.50
2023-04-06T11:07:06.710Z,13.92
2023-04-06T11:08:08.327Z,15.44
2023-04-06T11:09:10.178Z,16.98
2023-04-06T11:10:17.528Z,16.13
2023-04-06T11:11:22.093Z,13.57
2023-04-06T11:12:27.893Z,13.18
2023-04-06T11:13:45.797Z,15.34
2023-04-06T11:15:05.421Z,14.43
2023-04-06T11:16:07.254Z,16.87
2023-04-06T11:17:08.915Z,16.45
2023-04-06T11:18:12.132Z,15.68
2023-04-06T11:19:13.952Z,14.95
2023-04-06T11:20:16.421Z,15.72
2023-04-06T11:21:18.679Z,14.17
2023-04-06T11:22:20.107Z,13.93
2023-04-06T11:23:28.334Z,14.46
2023-04-06T11:24:29.782Z,13.99
2023-04-06T11:25:33.466Z,13.55
2023-04-06T11:26:55.015Z,13.61
2023-04-06T11:27:56.666Z,14.42
2023-04-06T11:28:58.608Z,14.18
2023-04-06T11:30:01.239Z,14.77
2023-04-06T11:31:02.904Z,15.41
2023-04-06T11:32:07.307Z,15.17
2023-04-06T11:33:08.814Z,15.18
2023-04-06T11:34:12.215Z,13.73
2023-04-06T11:35:25.799Z,15.48
2023-04-06T11:36:31.117Z,15.75
2023-04-06T11:37:33.864Z,15.34
2023-04-06T11:38:39.785Z,15.76
2023-04-06T11:39:43.100Z,15.90
2023-04-06T11:40:44.632Z,16.14
2023-04-06T11:41:53.243Z,16.45
2023-04-06T11:42:56.169Z,16.37
2023-04-06T11:43:57.860Z,17.06
2023-04-06T11:45:00.645Z,16.43
2023-04-06T11:46:04.097Z,16.53
2023-04-06T11:47:10.394Z,16.04
2023-04-06T11:48:23.203Z,14.94
2023-04-06T11:49:32.711Z,14.95
2023-04-06T11:50:37.267Z,15.21
2023-04-06T11:51:38.878Z,15.30
2023-04-06T11:52:42.683Z,15.43
2023-04-06T11:53:47.221Z,14.33
2023-04-06T11:54:50.012Z,14.68
2023-04-06T11:55:51.605Z,14.85
2023-04-06T11:56:53.198Z,13.77
2023-04-06T11:57:54.846Z,13.47
2023-04-06T11:59:00.926Z,14.19
2023-04-06T12:00:02.608Z,14.23
2023-04-06T12:01:05.256Z,14.93
2023-04-06T12:02:06.886Z,14.66
2023-04-06T12:03:08.338Z,14.04
2023-04-06T12:04:09.847Z,14.20
2023-04-06T12:05:11.599Z,14.04
2023-04-06T12:06:13.110Z,13.95
2023-04-06T12:07:14.828Z,14.85
2023-04-06T12:08:16.321Z,13.94
2023-04-06T12:09:21.263Z,15.04
2023-04-06T12:10:22.842Z,15.56
2023-04-06T12:11:24.403Z,14.86
2023-04-06T12:12:26.585Z,16.14
2023-04-06T12:13:28.471Z,16.21
2023-04-06T12:14:31.750Z,15.45
2023-04-06T12:15:33.242Z,15.33
2023-04-06T12:16:35.988Z,15.36
2023-04-06T12:17:37.979Z,14.55
2023-04-06T12:18:39.581Z,15.03
2023-04-06T12:19:41.614Z,15.38
2023-04-06T12:20:43.050Z,15.41
2023-04-06T12:21:44.449Z,15.27
2023-04-06T12:22:46.363Z,15.16
2023-04-06T12:23:48.123Z,15.87
2023-04-06T12:24:49.640Z,16.05
2023-04-06T12:25:51.563Z,15.88
2023-04-06T12:26:59.656Z,16.58
2023-04-06T12:28:08.389Z,16.45
2023-04-06T12:29:09.923Z,16.23
2023-04-06T12:30:12.126Z,15.54
2023-04-06T12:31:24.280Z,15.70
2023-04-06T12:32:25.975Z,15.62
2023-04-06T12:33:27.574Z,16.44
2023-04-06T12:34:29.179Z,15.25
2023-04-06T12:35:34.607Z,15.09
2023-04-06T12:36:38.203Z,15.38
2023-04-06T12:37:39.702Z,16.02
2023-04-06T12:38:42.062Z,16.21
2023-04-06T12:39:45.352Z,15.83
2023-04-06T12:40:46.921Z,15.02
2023-04-06T12:41:48.463Z,15.31
2023-04-06T12:42:49.910Z,15.48
2023-04-06T12:43:51.698Z,15.78
2023-04-06T12:44:53.449Z,15.52
2023-04-06T12:45:54.939Z,15.40
2023-04-06T12:46:57.211Z,15.36
2023-04-06T12:47:59.697Z,15.74
2023-04-06T12:49:02.071Z,15.85
2023-04-06T12:50:03.895Z,15.53
2023-04-06T12:51:07.009Z,15.48
2023-04-06T12:52:09.204Z,15.94
2023-04-06T12:53:10.974Z,15.58
2023-04-06T12:54:12.947Z,15.65
2023-04-06T12:55:14.512Z,15.96
2023-04-06T12:56:18.383Z,15.59
2023-04-06T12:57:20.047Z,15.03
2023-04-06T12:58:22.360Z,15.23
2023-04-06T12:59:26.031Z,15.09
2023-04-06T13:00:27.882Z,15.06
2023-04-06T13:01:30.020Z,15.34
2023-04-06T13:02:32.017Z,15.95
2023-04-06T13:03:33.710Z,16.30
2023-04-06T13:04:35.459Z,15.94
2023-04-06T13:05:36.842Z,15.98
2023-04-06T13:06:38.308Z,15.94
2023-04-06T13:07:39.878Z,15.15
2023-04-06T13:08:42.161Z,15.25
2023-04-06T13:09:43.696Z,15.17
2023-04-06T13:10:48.047Z,15.33
2023-04-06T13:11:49.716Z,16.42
2023-04-06T13:12:51.687Z,16.83
2023-04-06T13:13:53.103Z,16.57
2023-04-06T13:14:54.626Z,15.88
2023-04-06T13:16:07.742Z,15.07
2023-04-06T13:17:09.871Z,15.79
2023-04-06T13:18:11.454Z,16.40
2023-04-06T13:19:13.118Z,15.30
2023-04-06T13:20:14.822Z,15.64
2023-04-06T13:21:17.274Z,15.55
2023-04-06T13:22:18.751Z,15.10
2023-04-06T13:23:20.398Z,15.04
2023-04-06T13:24:22.772Z,14.77
2023-04-06T13:25:24.331Z,14.62
2023-04-06T13:26:26.713Z,14.45
2023-04-06T13:27:28.489Z,14.39
2023-04-06T13:28:30.620Z,14.24
2023-04-06T13:29:32.059Z,14.09
2023-04-06T13:30:33.668Z,13.95
2023-04-06T13:31:35.266Z,14.21
2023-04-06T13:32:37.434Z,14.08
2023-04-06T13:33:39.495Z,14.01
2023-04-06T13:34:45.822Z,14.17
2023-04-06T13:35:47.508Z,14.23
2023-04-06T13:36:49.266Z,14.81
2023-04-06T13:37:53.124Z,15.42
2023-04-06T13:38:57.877Z,15.22
2023-04-06T13:39:59.599Z,14.91
2023-04-06T13:41:01.104Z,14.53
2023-04-06T13:42:04.103Z,14.40
2023-04-06T13:43:05.907Z,14.82
2023-04-06T13:44:07.439Z,14.95
2023-04-06T13:45:09.436Z,15.49
2023-04-06T13:46:11.285Z,15.90
2023-04-06T13:47:13.365Z,15.86
2023-04-06T13:48:14.837Z,15.59
2023-04-06T13:49:16.507Z,15.33
2023-04-06T13:50:17.999Z,15.69
2023-04-06T13:51:19.448Z,15.42
2023-04-06T13:52:21.315Z,15.91
2023-04-06T13:53:22.932Z,15.63
2023-04-06T13:54:24.475Z,15.88
2023-04-06T13:55:26.040Z,15.64
2023-04-06T13:56:27.471Z,15.08
2023-04-06T13:57:30.803Z,15.14
2023-04-06T13:58:32.378Z,14.55
2023-04-06T13:59:36.780Z,14.92
2023-04-06T14:00:38.982Z,14.67
2023-04-06T14:01:40.851Z,15.08
2023-04-06T14:02:42.510Z,14.71
2023-04-06T14:03:46.413Z,14.79
2023-04-06T14:04:48.141Z,14.64
2023-04-06T14:05:49.509Z,14.57
2023-04-06T14:06:50.892Z,13.94
2023-04-06T14:07:52.394Z,13.85
2023-04-06T14:08:53.847Z,14.30
2023-04-06T14:09:55.313Z,14.72
2023-04-06T14:10:57.542Z,15.24
2023-04-06T14:11:58.927Z,15.44
2023-04-06T14:13:00.349Z,15.57
2023-04-06T14:14:02.031Z,16.05
2023-04-06T14:15:03.719Z,16.10
2023-04-06T14:16:05.837Z,16.13
2023-04-06T14:17:07.309Z,15.71
2023-04-06T14:18:09.451Z,15.81
2023-04-06T14:19:12.838Z,15.70
2023-04-06T14:20:16.091Z,15.56
2023-04-06T14:21:17.516Z,15.42
2023-04-06T14:22:19.291Z,15.31
2023-04-06T14:23:21.685Z,15.57
2023-04-06T14:24:23.667Z,15.59
2023-04-06T14:25:25.511Z,15.26
2023-04-06T14:26:27.488Z,14.97
2023-04-06T14:27:28.866Z,15.18
2023-04-06T14:28:31.205Z,14.75
2023-04-06T14:29:32.598Z,14.73
2023-04-06T14:30:34.074Z,14.13
2023-04-06T14:31:36.464Z,13.82
2023-04-06T14:32:38.427Z,13.81
2023-04-06T14:33:40.818Z,13.59
2023-04-06T14:34:42.380Z,13.35
2023-04-06T14:35:43.834Z,13.46
2023-04-06T14:36:45.318Z,13.59
2023-04-06T14:37:46.719Z,13.56
2023-04-06T14:38:48.661Z,13.59
2023-04-06T14:39:50.205Z,13.34
2023-04-06T14:40:51.737Z,13.50
2023-04-06T14:41:53.191Z,13.22
2023-04-06T14:42:56.554Z,13.67
2023-04-06T14:43:58.236Z,13.57
2023-04-06T14:44:59.592Z,13.77
2023-04-06T14:46:02.234Z,13.95
2023-04-06T14:47:06.288Z,14.09
2023-04-06T14:48:08.249Z,14.18
2023-04-06T14:49:09.807Z,13.94
2023-04-06T14:50:11.907Z,13.98
2023-04-06T14:51:13.384Z,13.66
2023-04-06T14:52:14.788Z,13.87
2023-04-06T14:53:16.209Z,13.75
2023-04-06T14:54:17.623Z,13.90
2023-04-06T14:55:19.062Z,14.11
2023-04-06T14:56:24.846Z,14.09
2023-04-06T14:57:26.333Z,14.22
2023-04-06T14:58:27.883Z,14.39
